Time;durP1;ratioP1;P1;durP2;ratioP2;P2;SDS_P1;SDS_P2;PMS_P1;PMS_P2;Temp;Humidity;BMP_temperature;BMP_pressure;BME280_temperature;BME280_humidity;BME280_pressure;Samples;Min_cycle;Max_cycle;Signal;HPM_P1;HPM_P2
2021/12/12 02:56:33;;;;;;;;;;;10.20;99.90;;;;;;4952301;28;20111;-96
2021/12/12 02:59:03;;;;;;;6.50;4.53;;;10.30;99.90;;;;;;4939122;28;19907;-94
2021/12/12 03:02:04;;;;;;;5.25;4.75;;;10.30;99.90;;;;;;4939028;29;20012;-94
2021/12/12 03:10:03;;;;;;;4.97;3.95;;;10.40;99.90;;;;;;5051373;23;20076;-94
2021/12/12 03:12:35;;;;;;;3.15;2.85;;;10.30;99.90;;;;;;5258453;23;20119;-95
2021/12/12 03:15:10;;;;;;;3.35;2.83;;;10.40;99.90;;;;;;4928627;29;20129;-94
2021/12/12 03:18:25;;;;;;;2.05;1.85;;;10.30;99.90;;;;;;4961515;29;20448;-95
2021/12/12 04:07:27;;;;;;;2.20;1.80;;;10.20;99.90;;;;;;5720608;23;20080;-95
2021/12/12 04:09:54;;;;;;;2.47;1.45;;;10.20;99.90;;;;;;4923608;29;20043;-95
2021/12/12 08:47:05;;;;;;;1.92;1.67;;;10.30;99.90;;;;;;5211362;23;20258;-94
2021/12/12 10:36:56;;;;;;;1.70;1.50;;;12.00;99.90;;;;;;5802937;23;20331;-94
2021/12/12 10:39:29;;;;;;;3.22;1.77;;;12.00;99.90;;;;;;4946912;29;20047;-93
2021/12/12 10:47:55;;;;;;;2.03;1.45;;;12.00;99.90;;;;;;5579909;23;20059;-95
2021/12/12 10:50:51;;;;;;;4.50;1.67;;;12.00;99.90;;;;;;4934647;29;20095;-93
2021/12/12 10:53:34;;;;;;;1.63;1.52;;;11.90;99.90;;;;;;4914789;29;20118;-94
2021/12/12 10:56:25;;;;;;;1.85;1.48;;;12.00;99.90;;;;;;4915911;29;20060;-94
2021/12/12 10:58:59;;;;;;;2.20;1.10;;;12.00;99.90;;;;;;4913096;29;20040;-95
2021/12/12 11:01:35;;;;;;;1.27;1.17;;;12.00;99.90;;;;;;4912025;29;20407;-94
2021/12/12 11:04:51;;;;;;;1.00;1.00;;;12.00;99.90;;;;;;4928482;29;20075;-93
2021/12/12 11:07:53;;;;;;;1.05;0.75;;;12.10;99.90;;;;;;4890358;29;20410;-95
2021/12/12 11:10:47;;;;;;;0.80;0.80;;;12.10;99.90;;;;;;4916022;29;20020;-96
2021/12/12 11:14:01;;;;;;;1.85;0.82;;;12.20;99.90;;;;;;4900344;29;20107;-95
2021/12/12 11:16:36;;;;;;;1.00;0.90;;;12.20;99.90;;;;;;4838551;29;20054;-95
2021/12/12 11:19:15;;;;;;;1.00;1.00;;;12.30;99.90;;;;;;4836063;29;20042;-96
2021/12/12 11:22:00;;;;;;;0.82;0.80;;;12.30;99.90;;;;;;4846608;29;20030;-96
2021/12/12 11:24:40;;;;;;;3.05;1.10;;;12.20;99.90;;;;;;4858400;29;20045;-95
2021/12/12 11:27:37;;;;;;;3.35;1.10;;;12.20;99.90;;;;;;4837335;29;20033;-96
2021/12/12 11:42:30;;;;;;;2.17;0.98;;;12.30;99.90;;;;;;5130965;23;20136;-96
2021/12/12 11:45:17;;;;;;;3.30;1.20;;;12.30;99.90;;;;;;4912102;29;20119;-96
2021/12/12 11:47:49;;;;;;;4.25;1.00;;;12.30;99.90;;;;;;4916194;29;20028;-92
2021/12/12 11:50:57;;;;;;;1.08;0.60;;;12.40;99.90;;;;;;4908066;29;20032;-94
2021/12/12 11:53:53;;;;;;;2.38;0.70;;;12.40;99.90;;;;;;4910050;29;20020;-94
2021/12/12 12:00:30;;;;;;;2.40;0.80;;;12.50;99.90;;;;;;4903616;29;20073;-93
2021/12/12 12:07:04;;;;;;;1.20;0.70;;;12.40;99.90;;;;;;4907560;29;20038;-94
2021/12/12 12:21:49;;;;;;;2.22;1.10;;;12.50;99.90;;;;;;4924491;29;20120;-94
2021/12/12 12:25:15;;;;;;;1.98;0.80;;;12.50;99.90;;;;;;4917719;29;20315;-95
2021/12/12 12:28:33;;;;;;;4.38;1.05;;;12.80;99.90;;;;;;4932442;29;20024;-96
2021/12/12 12:31:41;;;;;;;1.27;0.88;;;13.10;99.90;;;;;;4901396;29;20064;-95
2021/12/12 12:34:47;;;;;;;1.52;0.63;;;13.20;99.90;;;;;;4900138;29;20073;-95
2021/12/12 12:37:55;;;;;;;2.08;0.57;;;13.10;99.90;;;;;;4897885;29;20054;-96
2021/12/12 12:41:07;;;;;;;2.45;0.70;;;13.00;99.90;;;;;;4895157;29;20039;-95
2021/12/12 12:44:24;;;;;;;;;;;;;;;;;;;;;
2021/12/12 12:47:24;;;;;;;2.60;0.80;;;12.90;99.90;;;;;;4910122;29;20112;-95
2021/12/12 12:50:33;;;;;;;3.63;0.80;;;12.80;99.90;;;;;;4898657;29;20112;-96
2021/12/12 12:53:38;;;;;;;2.92;0.88;;;12.90;99.90;;;;;;4863765;29;20041;-96
2021/12/12 12:56:41;;;;;;;2.33;0.80;;;12.90;99.90;;;;;;4860913;29;20619;-95
2021/12/12 12:59:37;;;;;;;2.65;0.73;;;12.80;99.90;;;;;;4857290;29;20115;-95
2021/12/12 13:02:56;;;;;;;4.18;1.45;;;12.70;99.90;;;;;;4860339;29;20034;-95
2021/12/12 13:06:14;;;;;;;;;;;;;;;;;;;;;
2021/12/12 13:09:23;;;;;;;2.05;0.85;;;12.70;99.90;;;;;;4830724;29;20053;-95
2021/12/12 13:12:32;;;;;;;8.93;2.17;;;12.70;99.90;;;;;;4862519;29;20034;-96
2021/12/12 13:15:13;;;;;;;3.13;2.22;;;12.60;99.90;;;;;;4817000;29;20520;-96
2021/12/12 13:18:14;;;;;;;5.80;2.20;;;12.60;99.90;;;;;;4825096;29;20109;-95
2021/12/12 13:27:53;;;;;;;2.42;1.00;;;12.50;99.90;;;;;;5218096;23;20056;-94
2021/12/12 13:30:40;;;;;;;2.83;0.90;;;12.50;99.90;;;;;;4925621;29;20063;-95
2021/12/12 13:33:54;;;;;;;4.18;0.80;;;12.50;99.90;;;;;;4930266;29;20020;-94
2021/12/12 13:46:17;;;;;;;5.70;1.55;;;12.40;99.90;;;;;;5591807;23;20052;-92
2021/12/12 13:49:03;;;;;;;2.10;1.40;;;12.30;99.90;;;;;;4949746;29;20019;-96
2021/12/12 13:52:06;;;;;;;5.07;0.85;;;12.30;99.90;;;;;;4932896;29;20038;-95
2021/12/12 13:54:57;;;;;;;1.77;1.10;;;12.30;99.90;;;;;;4928461;29;20047;-94
2021/12/12 13:58:29;;;;;;;3.50;1.58;;;12.30;99.90;;;;;;4926874;29;20035;-95
2021/12/12 14:01:16;;;;;;;1.10;0.75;;;12.30;99.90;;;;;;4869735;29;20098;-95
2021/12/12 14:04:27;;;;;;;1.65;1.00;;;12.30;99.90;;;;;;4930317;29;20080;-96
2021/12/12 14:14:18;;;;;;;;;;;;;;;;;;;;;
2021/12/12 14:17:27;;;;;;;2.63;1.30;;;12.20;99.90;;;;;;4883308;29;20116;-95
2021/12/12 14:23:43;;;;;;;2.90;1.15;;;12.10;99.90;;;;;;4861017;29;20040;-96
2021/12/12 14:26:49;;;;;;;2.42;0.90;;;12.10;99.90;;;;;;4866803;29;20037;-96
2021/12/12 16:06:52;;;;;;;0.63;0.60;;;11.50;99.90;;;;;;4128005;23;20612;-92
2021/12/12 16:09:24;;;;;;;0.95;0.85;;;11.50;99.90;;;;;;4952456;29;20139;-94
2021/12/12 16:12:27;;;;;;;1.23;1.00;;;11.50;99.90;;;;;;4964922;28;20031;-95
2021/12/12 16:15:20;;;;;;;1.40;1.13;;;11.50;99.90;;;;;;4972241;28;20046;-93
2021/12/12 16:18:19;;;;;;;1.20;1.10;;;11.40;99.90;;;;;;4974052;28;20117;-95
2021/12/12 16:20:56;;;;;;;2.83;0.90;;;11.40;99.90;;;;;;4958110;28;20023;-96
2021/12/12 16:23:28;;;;;;;1.13;0.77;;;11.40;99.90;;;;;;4972525;28;20031;-95
2021/12/12 16:26:04;;;;;;;2.30;0.80;;;11.40;99.90;;;;;;4975101;28;20027;-94
2021/12/12 16:28:41;;;;;;;2.10;0.98;;;11.40;99.90;;;;;;4972343;28;20067;-95
2021/12/12 16:31:35;;;;;;;2.00;0.82;;;11.40;99.90;;;;;;4971405;28;20034;-94
2021/12/12 16:34:07;;;;;;;0.80;0.80;;;11.40;99.90;;;;;;4967078;28;20117;-96
2021/12/12 16:36:41;;;;;;;1.38;0.60;;;11.50;99.90;;;;;;4971149;28;20058;-94
2021/12/12 16:42:23;;;;;;;;;;;11.50;99.90;;;;;;4984469;28;20038;-95
2021/12/12 16:45:31;;;;;;;1.05;0.80;;;11.50;99.90;;;;;;4967385;28;19925;-94
2021/12/12 16:48:41;;;;;;;;;;;;;;;;;;;;;
2021/12/12 16:51:48;;;;;;;1.13;0.82;;;11.40;99.90;;;;;;4970773;28;20097;-95
2021/12/12 16:54:32;;;;;;;3.20;1.05;;;11.30;99.90;;;;;;4980170;28;20023;-95
2021/12/12 16:57:17;;;;;;;2.03;0.80;;;11.30;99.90;;;;;;4969429;28;20046;-96
2021/12/12 16:59:45;;;;;;;1.30;0.95;;;11.30;99.90;;;;;;4973423;28;20133;-95
2021/12/12 17:02:31;;;;;;;1.33;1.02;;;11.20;99.90;;;;;;4975244;28;20031;-95
2021/12/12 17:14:27;;;;;;;3.83;1.73;;;11.10;99.90;;;;;;5130230;23;20070;-96
2021/12/12 17:17:37;;;;;;;2.13;1.75;;;11.10;99.90;;;;;;4970461;29;20039;-95
2021/12/12 17:20:33;;;;;;;5.70;2.28;;;11.10;99.90;;;;;;4971049;28;20031;-95
2021/12/12 17:23:19;;;;;;;7.40;2.65;;;11.10;99.90;;;;;;4954047;29;20074;-95
2021/12/12 17:26:01;;;;;;;2.60;1.67;;;11.20;99.90;;;;;;4947481;29;20032;-95
2021/12/12 17:28:56;;;;;;;1.83;1.20;;;11.20;99.90;;;;;;4948444;29;20043;-95
2021/12/12 17:31:51;;;;;;;2.05;0.93;;;11.30;99.90;;;;;;4947456;29;20079;-96
2021/12/12 17:35:26;;;;;;;;;;;;;;;;;;;;;
2021/12/12 17:38:14;;;;;;;2.28;1.55;;;11.30;99.90;;;;;;4840776;29;20133;-96
2021/12/12 17:41:11;;;;;;;5.25;1.75;;;11.30;99.90;;;;;;4876344;29;20034;-96
2021/12/12 17:44:17;;;;;;;3.58;1.67;;;11.30;99.90;;;;;;4875481;29;20134;-95
2021/12/12 17:47:04;;;;;;;12.23;5.28;;;11.30;99.90;;;;;;4855472;29;20072;-95
2021/12/12 17:50:13;;;;;;;4.18;1.85;;;11.30;99.90;;;;;;4854467;29;20041;-94
2021/12/12 17:52:54;;;;;;;2.50;1.38;;;11.30;99.90;;;;;;4855207;29;20099;-95
2021/12/12 17:59:06;;;;;;;1.23;0.98;;;11.30;99.90;;;;;;4849253;29;20081;-94
2021/12/12 18:01:48;;;;;;;2.03;1.17;;;11.30;99.90;;;;;;4837884;29;20497;-96
2021/12/12 18:04:25;;;;;;;4.72;1.80;;;11.30;99.90;;;;;;4836602;29;20348;-94
2021/12/12 18:07:07;;;;;;;1.98;1.63;;;11.30;99.90;;;;;;4833600;29;20037;-95
2021/12/12 18:10:18;;;;;;;1.73;1.52;;;11.20;99.90;;;;;;4842909;29;20048;-95
2021/12/12 18:12:45;;;;;;;5.88;1.67;;;11.20;99.90;;;;;;4785471;29;20126;-94
2021/12/12 18:15:14;;;;;;;5.63;1.98;;;11.20;99.90;;;;;;4773884;30;20515;-94
2021/12/12 18:18:04;;;;;;;2.38;1.83;;;11.20;99.90;;;;;;4826186;29;20045;-95
2021/12/12 18:20:38;;;;;;;3.60;1.88;;;11.20;99.90;;;;;;4848989;29;20036;-95
2021/12/12 18:23:16;;;;;;;4.78;2.13;;;11.10;99.90;;;;;;4845968;29;20034;-93
2021/12/12 18:26:01;;;;;;;4.93;1.85;;;11.10;99.90;;;;;;4851688;29;20074;-94
2021/12/12 18:28:47;;;;;;;4.57;1.75;;;11.10;99.90;;;;;;4854748;29;20033;-94
2021/12/12 18:31:45;;;;;;;2.83;2.00;;;11.10;99.90;;;;;;4849319;29;20113;-93
2021/12/12 18:34:23;;;;;;;6.20;2.28;;;11.10;99.90;;;;;;4841477;29;20054;-96
2021/12/12 18:37:07;;;;;;;4.38;1.75;;;11.10;99.90;;;;;;4917523;29;20072;-96
2021/12/12 18:39:56;;;;;;;3.75;1.80;;;11.00;99.90;;;;;;4914171;29;20032;-95
2021/12/12 18:42:44;;;;;;;7.38;3.95;;;11.10;99.90;;;;;;4909505;29;20048;-95
2021/12/12 18:45:17;;;;;;;5.32;2.45;;;11.00;99.90;;;;;;4912664;29;20070;-94
2021/12/12 18:48:08;;;;;;;3.85;2.00;;;11.00;99.90;;;;;;4910781;29;20036;-96
2021/12/12 18:50:45;;;;;;;2.50;1.80;;;11.10;99.90;;;;;;4932021;29;20047;-94
2021/12/12 18:53:19;;;;;;;4.05;1.60;;;11.00;99.90;;;;;;4913561;29;20478;-95
2021/12/12 18:55:52;;;;;;;5.80;1.70;;;11.00;99.90;;;;;;4910672;29;20042;-96
2021/12/12 18:58:26;;;;;;;3.40;1.90;;;11.00;99.90;;;;;;4914130;29;20031;-94
2021/12/12 19:01:42;;;;;;;15.18;6.50;;;11.00;99.90;;;;;;4914585;29;20032;-96
2021/12/12 19:04:34;;;;;;;3.47;2.38;;;11.00;99.90;;;;;;4906580;29;20047;-96
2021/12/12 19:07:07;;;;;;;6.40;2.72;;;10.90;99.90;;;;;;4916153;29;20036;-94
2021/12/12 19:10:19;;;;;;;9.05;2.70;;;10.90;99.90;;;;;;4918952;29;20426;-95
2021/12/12 19:13:18;;;;;;;4.72;2.40;;;10.90;99.90;;;;;;4913647;29;20032;-95
2021/12/12 19:15:46;;;;;;;4.65;1.95;;;10.90;99.90;;;;;;4904763;29;20040;-92
2021/12/12 19:18:15;;;;;;;3.42;2.03;;;10.90;99.90;;;;;;4903812;29;20028;-91
2021/12/12 19:20:46;;;;;;;5.13;1.63;;;10.90;99.90;;;;;;4913644;29;20032;-94
2021/12/12 19:23:12;;;;;;;;;;;11.00;99.90;;;;;;4922969;29;20454;-92
2021/12/12 19:25:43;;;;;;;3.35;1.73;;;11.00;99.90;;;;;;4922585;29;19963;-93
2021/12/12 19:28:11;;;;;;;3.58;1.85;;;11.00;99.90;;;;;;4923656;29;20042;-93
2021/12/12 19:30:45;;;;;;;6.53;2.00;;;11.00;99.90;;;;;;4922584;29;20482;-92
2021/12/12 19:33:16;;;;;;;8.30;2.30;;;11.00;99.90;;;;;;4923142;29;20055;-95
2021/12/12 19:35:43;;;;;;;3.53;1.67;;;10.90;99.90;;;;;;4919017;29;20473;-93
2021/12/12 19:38:14;;;;;;;6.47;2.60;;;10.90;99.90;;;;;;4907313;29;20290;-93
2021/12/12 19:41:04;;;;;;;8.98;3.95;;;10.90;99.90;;;;;;4900648;29;20054;-95
2021/12/12 19:43:39;;;;;;;17.00;5.27;;;10.90;99.90;;;;;;4936186;29;20050;-95
2021/12/12 19:46:06;;;;;;;5.78;2.42;;;10.90;99.90;;;;;;4906540;29;20036;-94
2021/12/12 19:48:39;;;;;;;6.45;1.90;;;10.90;99.90;;;;;;4895036;29;20028;-92
2021/12/12 19:51:08;;;;;;;11.68;4.80;;;10.90;99.90;;;;;;4907992;29;20605;-93
2021/12/12 19:53:46;;;;;;;7.50;3.15;;;10.90;99.90;;;;;;4896357;29;20028;-92
2021/12/12 19:56:14;;;;;;;10.70;4.63;;;10.90;99.90;;;;;;4897852;29;20024;-93
2021/12/12 19:58:48;;;;;;;8.32;4.28;;;10.90;99.90;;;;;;4891510;29;20040;-91
2021/12/12 20:01:17;;;;;;;5.45;1.85;;;10.80;99.90;;;;;;4894082;29;20024;-92
2021/12/12 20:03:49;;;;;;;3.22;1.27;;;10.80;99.90;;;;;;4891019;29;20039;-92
2021/12/12 20:06:19;;;;;;;3.72;0.98;;;10.80;99.90;;;;;;4893543;29;20533;-93
2021/12/12 20:08:53;;;;;;;6.03;1.17;;;10.80;99.90;;;;;;4893512;29;20541;-92
2021/12/12 20:11:33;;;;;;;6.03;1.23;;;10.80;99.90;;;;;;4893639;29;20048;-93
2021/12/12 20:14:02;;;;;;;3.00;0.70;;;10.80;99.90;;;;;;4901199;29;20052;-91
2021/12/12 20:16:36;;;;;;;9.18;2.10;;;10.80;99.90;;;;;;4915573;29;20028;-92
2021/12/12 20:19:17;;;;;;;3.53;1.35;;;10.80;99.90;;;;;;4909910;29;20028;-91
2021/12/12 20:21:51;;;;;;;4.45;0.70;;;10.80;99.90;;;;;;4922809;29;20095;-92
2021/12/12 20:24:22;;;;;;;6.22;1.05;;;10.80;99.90;;;;;;4920440;29;20065;-92
2021/12/12 20:26:59;;;;;;;4.28;0.80;;;10.80;99.90;;;;;;4911012;29;20032;-92
2021/12/12 20:48:29;;;;;;;6.00;1.30;;;10.70;99.90;;;;;;5534573;23;20051;-93
2021/12/12 20:51:04;;;;;;;9.65;1.60;;;10.80;99.90;;;;;;4932016;28;20035;-92
2021/12/12 20:53:35;;;;;;;3.13;1.30;;;10.70;99.90;;;;;;4936942;28;20055;-92
2021/12/12 20:56:16;;;;;;;4.28;1.30;;;10.70;99.90;;;;;;4936162;28;20024;-94
2021/12/12 20:58:51;;;;;;;;;;;10.70;99.90;;;;;;4933419;28;20091;-92
2021/12/12 21:01:19;;;;;;;4.53;1.10;;;10.70;99.90;;;;;;4954272;28;19907;-93
2021/12/12 21:03:54;;;;;;;5.85;1.55;;;10.70;99.90;;;;;;4928282;28;20055;-92
2021/12/12 21:06:25;;;;;;;5.53;1.27;;;10.70;99.90;;;;;;4945232;28;20027;-91
2021/12/12 21:08:57;;;;;;;5.10;1.52;;;10.60;99.90;;;;;;4936505;28;20022;-93
2021/12/12 21:11:34;;;;;;;6.00;1.38;;;10.60;99.90;;;;;;4934861;29;20054;-92
2021/12/12 21:14:03;;;;;;;2.92;1.30;;;10.60;99.90;;;;;;4938357;29;20115;-92
2021/12/12 21:16:29;;;;;;;6.13;1.50;;;10.60;99.90;;;;;;4933048;28;20047;-92
2021/12/12 21:19:04;;;;;;;5.57;1.17;;;10.60;99.90;;;;;;4925682;29;20446;-92
2021/12/12 21:21:36;;;;;;;10.50;2.50;;;10.60;99.90;;;;;;4937325;29;20054;-92
2021/12/12 21:24:17;;;;;;;5.90;1.70;;;10.60;99.90;;;;;;4926564;29;20028;-93
2021/12/12 21:26:47;;;;;;;;;;;10.50;99.90;;;;;;4928988;29;20119;-91
2021/12/12 21:29:15;;;;;;;10.63;1.60;;;10.50;99.90;;;;;;4926826;29;20021;-92
2021/12/12 21:31:50;;;;;;;11.25;1.50;;;10.50;99.90;;;;;;4923079;29;20031;-91
2021/12/12 21:34:19;;;;;;;5.55;1.25;;;10.50;99.90;;;;;;4941709;29;20028;-93
2021/12/12 21:36:57;;;;;;;5.03;1.77;;;10.50;99.90;;;;;;4922078;29;20031;-93
2021/12/12 21:39:29;;;;;;;5.20;1.50;;;10.50;99.90;;;;;;4922461;29;20115;-92
2021/12/12 21:42:07;;;;;;;7.95;1.40;;;10.50;99.90;;;;;;4930483;29;20043;-92
2021/12/12 21:44:44;;;;;;;4.07;1.27;;;10.50;99.90;;;;;;4922183;29;20051;-92
2021/12/12 21:47:39;;;;;;;7.35;1.17;;;10.50;99.90;;;;;;4919241;29;20222;-93
2021/12/12 21:50:07;;;;;;;1.23;0.90;;;10.40;99.90;;;;;;4913017;29;20428;-92
2021/12/12 21:52:42;;;;;;;4.82;1.65;;;10.30;99.90;;;;;;4930607;29;20058;-91
2021/12/12 21:55:28;;;;;;;6.22;1.70;;;10.30;99.90;;;;;;4922112;29;20115;-91
2021/12/12 21:58:12;;;;;;;3.50;1.23;;;10.30;99.90;;;;;;4929150;29;20082;-92
2021/12/12 22:00:51;;;;;;;6.63;1.20;;;10.30;99.90;;;;;;4927972;29;20477;-92
2021/12/12 22:03:20;;;;;;;6.22;1.30;;;10.20;99.90;;;;;;4928442;29;20028;-91
2021/12/12 22:05:49;;;;;;;3.53;1.10;;;10.20;99.90;;;;;;4926850;29;20110;-92
2021/12/12 22:08:24;;;;;;;2.65;1.05;;;10.10;99.90;;;;;;4930480;29;20032;-90
2021/12/12 22:11:01;;;;;;;3.80;1.00;;;10.10;99.90;;;;;;4937121;29;20055;-91
2021/12/12 22:13:31;;;;;;;4.68;0.82;;;10.10;99.90;;;;;;4928457;29;20024;-92
2021/12/12 22:16:05;;;;;;;5.10;1.02;;;10.10;99.90;;;;;;4929271;29;20028;-92
2021/12/12 22:18:34;;;;;;;3.85;0.80;;;10.00;99.90;;;;;;4930838;29;20031;-92
2021/12/12 22:21:05;;;;;;;4.82;1.40;;;10.00;99.90;;;;;;4923962;29;20034;-94
2021/12/12 22:23:32;;;;;;;4.15;0.80;;;10.00;99.90;;;;;;4937808;29;20031;-94
2021/12/12 22:26:00;;;;;;;5.80;1.10;;;10.00;99.90;;;;;;4920619;29;20046;-92
2021/12/12 22:28:38;;;;;;;2.95;0.80;;;10.00;99.90;;;;;;4928026;29;20027;-91
2021/12/12 22:31:07;;;;;;;4.03;1.17;;;10.00;99.90;;;;;;4924490;29;20079;-91
2021/12/12 22:33:41;;;;;;;6.18;0.90;;;10.00;99.90;;;;;;4930452;29;20038;-92
2021/12/12 22:36:10;;;;;;;7.10;1.13;;;10.00;99.90;;;;;;4925891;29;20477;-92
2021/12/12 22:38:40;;;;;;;3.30;0.90;;;10.00;99.90;;;;;;4924014;29;20086;-91
2021/12/12 22:41:14;;;;;;;2.35;0.90;;;10.00;99.90;;;;;;4926421;29;20020;-91
2021/12/12 22:43:45;;;;;;;3.15;0.90;;;9.90;99.90;;;;;;4926939;29;20031;-93
2021/12/12 22:46:11;;;;;;;;;;;10.00;99.90;;;;;;4921610;29;20091;-92
2021/12/12 22:48:51;;;;;;;4.75;1.02;;;10.00;99.90;;;;;;4922849;29;20022;-91
2021/12/12 22:51:33;;;;;;;3.05;0.90;;;9.90;99.90;;;;;;4921764;29;20032;-93
2021/12/12 22:54:27;;;;;;;3.90;0.85;;;9.90;99.90;;;;;;4925770;29;20057;-94
2021/12/12 22:57:00;;;;;;;5.93;0.90;;;10.00;99.90;;;;;;4917689;29;20502;-93
2021/12/12 22:59:29;;;;;;;1.17;0.80;;;9.90;99.90;;;;;;4919211;29;20024;-91
2021/12/12 23:02:03;;;;;;;8.48;0.82;;;10.00;99.90;;;;;;4915023;29;20020;-95
2021/12/12 23:04:56;;;;;;;2.25;0.60;;;10.00;99.90;;;;;;4927156;29;20474;-94
2021/12/12 23:07:26;;;;;;;3.10;1.00;;;10.00;99.90;;;;;;4930320;29;20024;-93
2021/12/12 23:09:58;;;;;;;5.17;1.20;;;10.10;99.90;;;;;;4924580;29;20113;-92
2021/12/12 23:12:33;;;;;;;3.15;0.90;;;10.00;99.90;;;;;;4934214;29;20031;-92
2021/12/12 23:15:13;;;;;;;2.42;0.70;;;10.00;99.90;;;;;;4923848;29;20107;-93
2021/12/12 23:17:43;;;;;;;4.20;1.13;;;10.00;99.90;;;;;;4924598;29;20168;-92
2021/12/12 23:20:18;;;;;;;6.57;1.50;;;10.00;99.90;;;;;;4930879;29;20035;-92
2021/12/12 23:22:45;;;;;;;2.17;0.98;;;10.00;99.90;;;;;;4933861;29;20031;-92
2021/12/12 23:25:16;;;;;;;5.03;1.20;;;10.00;99.90;;;;;;4933667;29;20051;-94
2021/12/12 23:28:09;;;;;;;6.13;1.13;;;10.00;99.90;;;;;;4927762;29;20027;-94
2021/12/12 23:30:46;;;;;;;3.72;1.40;;;10.10;99.90;;;;;;4918404;29;20099;-93
2021/12/12 23:33:20;;;;;;;2.45;0.85;;;10.00;99.90;;;;;;4920495;29;20100;-93
2021/12/12 23:35:50;;;;;;;4.22;1.15;;;10.10;99.90;;;;;;4934213;29;20031;-92
2021/12/12 23:38:23;;;;;;;1.48;1.33;;;10.10;99.90;;;;;;4921298;29;20107;-92
2021/12/12 23:41:03;;;;;;;3.10;1.20;;;10.10;99.90;;;;;;4931155;29;20067;-93
2021/12/12 23:43:58;;;;;;;4.50;1.08;;;10.10;99.90;;;;;;4931652;29;20537;-93
2021/12/12 23:46:33;;;;;;;5.07;1.13;;;10.10;99.90;;;;;;4927619;29;20107;-94
2021/12/12 23:49:07;;;;;;;6.97;1.50;;;10.10;99.90;;;;;;4926663;29;20083;-93
2021/12/12 23:51:36;;;;;;;3.72;0.85;;;10.20;99.90;;;;;;4937920;29;20138;-94
2021/12/12 23:54:07;;;;;;;4.85;1.60;;;10.20;99.90;;;;;;4937307;29;20024;-93
2021/12/12 23:56:39;;;;;;;5.93;1.70;;;10.20;99.90;;;;;;4955898;29;20035;-92
2021/12/12 23:59:16;;;;;;;5.00;1.23;;;10.20;99.90;;;;;;4959717;29;20027;-92
